Tolar, New Mexico
Current Conditions -  °F | °C
As of 1:56 PM on Saturday 25 Oct 2014 (Local Time) from K4MR Reporting Station
Clear Clear  
Wind Chill: 27°   Ceiling: Unl
Heat Index: 27°   Visibility: 10mi
Dew Point:   Wind: 13mph
Humidity: 24%   Direction: 200°SSW
Pressure: 30.18"   Gusts: 20mph
Location:  34.3861°N, 104.044°W
Report Text: K4MR 251956Z AUTO 20011G17KT 10SM CLR 27/05 A3018 RMK AO2 SLP164 T02690046
Loading
Personal Weather Stations






























Interactive Weather Map
Tropical Storm Tracking
New forecast layout! Learn more

10-Day Weather Forecast

Advertisements
Track Severe Weather on mobile